Sunday, February 01, 2015
14:44 UTC
  |  Log In   |  Register Free
Airport Search:

John F Kennedy Memorial Airport
(KASX)

John F Kennedy Memorial Airport Diagram
No Airport Diagram Available

FAA data valid effective January 08, 2015 - March 05, 2015 (unless otherwise noted).

 
 
 
 
 
 
 
 
 
 
 
 
 
 

Current Aviation Weather for John F Kennedy Memorial Airport (KASX)

The most recent METAR observation for KASX was updated at: 1411
METAR Summary (Translated METAR)
KASX
011401Z AUTO 03012G22KT 1 1/4SM -SN BR OVC011 M13/M15 A3035 RMK AO2 P0000 T11281150
KIWD
011415Z AUTO 10004KT 10SM OVC028 M16/M19 A3027 RMK AO1
(32.6 nm SE from KASX)
KHYR
011405Z AUTO 06006KT 10SM BKN026 M13/M19 A3028 RMK AO2 T11331189
(38.2 nm SW from KASX)
TAF Summary (Translated TAF)
KIWD
(32.6 nm SE from KASX)
011124Z 0112/0212 06006KT P6SM BKN040 FM012000 02008KT P6SM -SHSN BKN025 FM020200 35005KT 6SM -SHSN OVC025 AMD LTD TO CLD VIS AND WIND
KHYR
(38.2 nm SW from KASX)
011128Z 0112/0212 05010G17KT P6SM SCT030 OVC130 TEMPO 0113/0115 BKN030 FM011500 04008KT P6SM BKN030 BKN130 FM020100 VRB03KT P6SM SCT030 BKN130
  Airport Weather Conditions for KASX

 Current Weather at ASX
9° F
Light Snow Fog/Mist
North winds at 19.6 mph
ASX NOAA Radar

Pressure: 30.35 in
Humidity: 84%
Wind: from the North at 19.6 gusting to 24.2 MPH (17 gusting to 21 KT)
Dew Point: 5.0°F
Visibility: 1.50 mi


Airport Weather Forecast for KASX

Translated METAR and TAF for KASX
Translated METAR for KASX (1444 UTC 01 February 2015)
found at http://aviationweather.gov/adds/metars/
 
METAR text: KASX 011414Z AUTO 02014KT 2SM -SN OVC015 M13/M16 A3035 RMK AO2 P0000 T11281156
Conditions at: KASX (ASHLAND , WI, US) observed 1414 UTC 01 February 2015
Temperature: -12.8°C (9°F)
Dewpoint: -15.6°C (4°F) [RH = 79%]
Pressure (altimeter): 30.35 inches Hg (1027.9 mb)
Winds: from the NNE (20 degrees) at 16 MPH (14 knots; 7.3 m/s)
Visibility: 2.00 miles (3.22 km)
Ceiling: 1500 feet AGL
Clouds: overcast cloud deck at 1500 feet AGL
Weather: -SN  (light snow)
Translated TAF for KASX

There is no translated TAF available for this airport

Find All Airport Services Find A Hotel Find A Rental Car Find A Golf Course Find A Restaurant $100 Hamburger



FBO's on the Field
FBO Company Facility Photos Services Transportation Aviation Fuel Prices: Prices include tax
Catering Weather Repair Courtesy Rental Type 100LL JetA JetA+ MOGAS 8087
 
John F Kennedy Memorial Airport

This FBO has not yet been rated
FS:Phillips 66
Last Updated: Jan-13
Login to update fuel prices
SS:
Contact John F Kennedy Memorial AirportMore FBO Information
 
Add another FBO Facility Photos Catering Weather Repair Courtesy Rental Type 100LL JetA JetA+ MOGAS 8087
Services Transportation Aviation Fuel Prices: Prices include tax


model-print
model-print
model-print
model-print